sensor_id;sensor_type;location;lat;lon;timestamp;pressure;altitude;pressure_sealevel;temperature;humidity
19023;BME280;35226;48.606;8.858;2022-12-24T00:00:01;95782.81;;;9.30;100.00
19023;BME280;35226;48.606;8.858;2022-12-24T00:02:27;95778.03;;;9.08;100.00
19023;BME280;35226;48.606;8.858;2022-12-24T00:04:52;95766.03;;;9.02;100.00
19023;BME280;35226;48.606;8.858;2022-12-24T00:07:18;95772.69;;;9.26;100.00
19023;BME280;35226;48.606;8.858;2022-12-24T00:09:43;95775.41;;;9.05;100.00
19023;BME280;35226;48.606;8.858;2022-12-24T00:12:09;95764.75;;;9.28;100.00
19023;BME280;35226;48.606;8.858;2022-12-24T00:14:34;95767.16;;;9.26;100.00
19023;BME280;35226;48.606;8.858;2022-12-24T00:17:03;95779.72;;;8.93;100.00
19023;BME280;35226;48.606;8.858;2022-12-24T00:19:29;95785.03;;;9.00;100.00
19023;BME280;35226;48.606;8.858;2022-12-24T00:21:54;95783.03;;;9.01;100.00
19023;BME280;35226;48.606;8.858;2022-12-24T00:24:20;95775.31;;;8.96;100.00
19023;BME280;35226;48.606;8.858;2022-12-24T00:26:45;95777.25;;;8.73;100.00
19023;BME280;35226;48.606;8.858;2022-12-24T00:29:11;95787.63;;;9.04;100.00
19023;BME280;35226;48.606;8.858;2022-12-24T00:31:36;95776.44;;;8.85;100.00
19023;BME280;35226;48.606;8.858;2022-12-24T00:34:02;95778.34;;;8.76;100.00
19023;BME280;35226;48.606;8.858;2022-12-24T00:36:27;95775.69;;;8.85;100.00
19023;BME280;35226;48.606;8.858;2022-12-24T00:38:56;95784.53;;;8.67;100.00
19023;BME280;35226;48.606;8.858;2022-12-24T00:41:21;95785.13;;;8.97;100.00
19023;BME280;35226;48.606;8.858;2022-12-24T00:43:55;95789.13;;;8.83;100.00
19023;BME280;35226;48.606;8.858;2022-12-24T00:46:23;95784.03;;;8.94;100.00
19023;BME280;35226;48.606;8.858;2022-12-24T00:48:49;95784.53;;;8.80;100.00
19023;BME280;35226;48.606;8.858;2022-12-24T00:51:15;95783.41;;;8.77;100.00
19023;BME280;35226;48.606;8.858;2022-12-24T00:53:40;95792.03;;;8.67;100.00
19023;BME280;35226;48.606;8.858;2022-12-24T00:56:07;95794.97;;;8.72;100.00
19023;BME280;35226;48.606;8.858;2022-12-24T00:58:33;95800.38;;;8.63;100.00
19023;BME280;35226;48.606;8.858;2022-12-24T01:00:59;95808.88;;;8.56;100.00
19023;BME280;35226;48.606;8.858;2022-12-24T01:03:25;95800.53;;;8.60;100.00
19023;BME280;35226;48.606;8.858;2022-12-24T01:06:04;95814.63;;;8.49;100.00
19023;BME280;35226;48.606;8.858;2022-12-24T01:08:30;95818.69;;;8.44;100.00
19023;BME280;35226;48.606;8.858;2022-12-24T01:10:56;95823.56;;;8.40;100.00
19023;BME280;35226;48.606;8.858;2022-12-24T01:13:22;95834.34;;;8.47;100.00
19023;BME280;35226;48.606;8.858;2022-12-24T01:15:47;95823.66;;;8.37;100.00
19023;BME280;35226;48.606;8.858;2022-12-24T01:18:13;95838.09;;;8.41;100.00
19023;BME280;35226;48.606;8.858;2022-12-24T01:20:39;95838.75;;;8.32;100.00
19023;BME280;35226;48.606;8.858;2022-12-24T01:23:05;95840.84;;;8.41;100.00
19023;BME280;35226;48.606;8.858;2022-12-24T01:25:30;95846.00;;;8.51;100.00
19023;BME280;35226;48.606;8.858;2022-12-24T01:27:56;95839.84;;;8.47;100.00
19023;BME280;35226;48.606;8.858;2022-12-24T01:30:22;95843.78;;;8.34;100.00
19023;BME280;35226;48.606;8.858;2022-12-24T01:32:47;95854.03;;;8.59;100.00
19023;BME280;35226;48.606;8.858;2022-12-24T01:35:12;95857.66;;;8.56;100.00
19023;BME280;35226;48.606;8.858;2022-12-24T01:37:38;95856.03;;;8.58;100.00
19023;BME280;35226;48.606;8.858;2022-12-24T01:40:09;95862.41;;;8.68;100.00
19023;BME280;35226;48.606;8.858;2022-12-24T01:42:57;95868.03;;;8.77;100.00
19023;BME280;35226;48.606;8.858;2022-12-24T01:53:43;95880.56;;;8.52;100.00
19023;BME280;35226;48.606;8.858;2022-12-24T01:56:10;95880.25;;;8.63;100.00
19023;BME280;35226;48.606;8.858;2022-12-24T01:58:39;95870.44;;;9.00;100.00
19023;BME280;35226;48.606;8.858;2022-12-24T02:01:06;95882.91;;;8.67;100.00
19023;BME280;35226;48.606;8.858;2022-12-24T02:03:31;95892.69;;;8.55;100.00
19023;BME280;35226;48.606;8.858;2022-12-24T02:05:58;95898.53;;;8.57;100.00
19023;BME280;35226;48.606;8.858;2022-12-24T02:08:24;95906.22;;;8.62;100.00
19023;BME280;35226;48.606;8.858;2022-12-24T02:11:16;95907.03;;;8.50;100.00
19023;BME280;35226;48.606;8.858;2022-12-24T02:14:02;95909.78;;;8.50;100.00
19023;BME280;35226;48.606;8.858;2022-12-24T02:22:16;95926.81;;;8.32;100.00
19023;BME280;35226;48.606;8.858;2022-12-24T02:30:42;95928.63;;;8.23;100.00
19023;BME280;35226;48.606;8.858;2022-12-24T02:33:28;95936.50;;;8.37;100.00
19023;BME280;35226;48.606;8.858;2022-12-24T02:36:04;95933.47;;;8.18;100.00
19023;BME280;35226;48.606;8.858;2022-12-24T02:38:35;95933.97;;;8.13;100.00
19023;BME280;35226;48.606;8.858;2022-12-24T02:43:36;95939.09;;;8.28;100.00
19023;BME280;35226;48.606;8.858;2022-12-24T02:46:08;95951.94;;;8.47;100.00
19023;BME280;35226;48.606;8.858;2022-12-24T02:48:37;95952.19;;;8.65;100.00
19023;BME280;35226;48.606;8.858;2022-12-24T02:51:07;95948.22;;;8.66;100.00
19023;BME280;35226;48.606;8.858;2022-12-24T02:53:34;95940.50;;;8.74;100.00
19023;BME280;35226;48.606;8.858;2022-12-24T03:04:31;95930.16;;;8.65;100.00
19023;BME280;35226;48.606;8.858;2022-12-24T03:07:23;95943.03;;;8.68;100.00
19023;BME280;35226;48.606;8.858;2022-12-24T03:12:40;95951.81;;;8.38;100.00
19023;BME280;35226;48.606;8.858;2022-12-24T03:15:09;95951.66;;;8.29;100.00
19023;BME280;35226;48.606;8.858;2022-12-24T03:17:37;95959.31;;;8.50;100.00
19023;BME280;35226;48.606;8.858;2022-12-24T03:20:05;95958.88;;;8.39;100.00
19023;BME280;35226;48.606;8.858;2022-12-24T03:22:33;95973.75;;;8.25;100.00
19023;BME280;35226;48.606;8.858;2022-12-24T03:24:59;95976.94;;;8.24;100.00
19023;BME280;35226;48.606;8.858;2022-12-24T03:27:26;95991.03;;;8.54;100.00
19023;BME280;35226;48.606;8.858;2022-12-24T03:29:53;95991.59;;;8.62;100.00
19023;BME280;35226;48.606;8.858;2022-12-24T03:32:27;95972.88;;;8.57;100.00
19023;BME280;35226;48.606;8.858;2022-12-24T03:34:53;95974.19;;;8.52;100.00
19023;BME280;35226;48.606;8.858;2022-12-24T03:37:18;95974.19;;;8.52;100.00
19023;BME280;35226;48.606;8.858;2022-12-24T03:39:44;95985.41;;;8.45;100.00
19023;BME280;35226;48.606;8.858;2022-12-24T03:42:09;95996.31;;;8.49;100.00
19023;BME280;35226;48.606;8.858;2022-12-24T03:44:38;95998.72;;;8.18;100.00
19023;BME280;35226;48.606;8.858;2022-12-24T03:47:03;95996.47;;;8.29;100.00
19023;BME280;35226;48.606;8.858;2022-12-24T03:49:29;96002.91;;;7.94;100.00
19023;BME280;35226;48.606;8.858;2022-12-24T03:51:55;96014.91;;;8.16;100.00
19023;BME280;35226;48.606;8.858;2022-12-24T03:54:20;96018.41;;;7.88;100.00
19023;BME280;35226;48.606;8.858;2022-12-24T03:56:46;96020.47;;;7.84;100.00
19023;BME280;35226;48.606;8.858;2022-12-24T03:59:11;96017.63;;;7.87;100.00
19023;BME280;35226;48.606;8.858;2022-12-24T04:01:37;96014.38;;;8.21;100.00
19023;BME280;35226;48.606;8.858;2022-12-24T04:04:02;96011.19;;;7.77;100.00
19023;BME280;35226;48.606;8.858;2022-12-24T04:06:28;96013.09;;;7.80;100.00
19023;BME280;35226;48.606;8.858;2022-12-24T04:08:53;96014.47;;;7.72;100.00
19023;BME280;35226;48.606;8.858;2022-12-24T04:11:19;96022.22;;;7.61;100.00
19023;BME280;35226;48.606;8.858;2022-12-24T04:13:44;96014.44;;;7.89;100.00
19023;BME280;35226;48.606;8.858;2022-12-24T04:16:13;96017.91;;;7.76;100.00
19023;BME280;35226;48.606;8.858;2022-12-24T04:18:40;96025.47;;;7.72;100.00
19023;BME280;35226;48.606;8.858;2022-12-24T04:21:07;96036.91;;;7.55;100.00
19023;BME280;35226;48.606;8.858;2022-12-24T04:23:34;96048.59;;;7.59;100.00
19023;BME280;35226;48.606;8.858;2022-12-24T04:26:02;96034.59;;;7.53;100.00
19023;BME280;35226;48.606;8.858;2022-12-24T04:28:29;96033.72;;;7.56;100.00
19023;BME280;35226;48.606;8.858;2022-12-24T04:31:02;96032.25;;;7.68;100.00
19023;BME280;35226;48.606;8.858;2022-12-24T04:33:28;96036.91;;;7.55;100.00
19023;BME280;35226;48.606;8.858;2022-12-24T04:35:56;96034.00;;;7.62;100.00
19023;BME280;35226;48.606;8.858;2022-12-24T04:38:22;96043.69;;;7.66;100.00
19023;BME280;35226;48.606;8.858;2022-12-24T04:40:48;96045.66;;;7.66;100.00
19023;BME280;35226;48.606;8.858;2022-12-24T04:43:14;96053.28;;;7.74;100.00
19023;BME280;35226;48.606;8.858;2022-12-24T04:45:39;96054.41;;;7.77;100.00
19023;BME280;35226;48.606;8.858;2022-12-24T04:48:05;96051.66;;;7.77;100.00
19023;BME280;35226;48.606;8.858;2022-12-24T04:50:30;96046.59;;;7.75;100.00
19023;BME280;35226;48.606;8.858;2022-12-24T04:52:56;96059.69;;;7.71;100.00
19023;BME280;35226;48.606;8.858;2022-12-24T04:55:22;96063.78;;;7.79;100.00
19023;BME280;35226;48.606;8.858;2022-12-24T04:57:48;96081.22;;;7.89;100.00
19023;BME280;35226;48.606;8.858;2022-12-24T05:00:13;96077.28;;;7.90;100.00
19023;BME280;35226;48.606;8.858;2022-12-24T05:02:39;96069.22;;;7.83;100.00
19023;BME280;35226;48.606;8.858;2022-12-24T05:05:05;96077.91;;;7.82;100.00
19023;BME280;35226;48.606;8.858;2022-12-24T05:07:30;96072.44;;;7.94;100.00
19023;BME280;35226;48.606;8.858;2022-12-24T05:09:56;96070.56;;;8.07;100.00
19023;BME280;35226;48.606;8.858;2022-12-24T05:12:21;96055.97;;;8.23;100.00
19023;BME280;35226;48.606;8.858;2022-12-24T05:14:47;96059.69;;;8.16;100.00
19023;BME280;35226;48.606;8.858;2022-12-24T05:17:13;96068.41;;;7.99;100.00
19023;BME280;35226;48.606;8.858;2022-12-24T05:19:38;96077.97;;;7.78;100.00
19023;BME280;35226;48.606;8.858;2022-12-24T05:22:04;96079.00;;;7.84;100.00
19023;BME280;35226;48.606;8.858;2022-12-24T05:24:48;96067.91;;;7.88;100.00
19023;BME280;35226;48.606;8.858;2022-12-24T05:27:32;96068.59;;;7.59;100.00
19023;BME280;35226;48.606;8.858;2022-12-24T05:29:57;96062.25;;;7.62;100.00
19023;BME280;35226;48.606;8.858;2022-12-24T05:32:23;96067.13;;;7.55;100.00
19023;BME280;35226;48.606;8.858;2022-12-24T05:34:48;96052.03;;;7.63;100.00
19023;BME280;35226;48.606;8.858;2022-12-24T05:37:14;96051.00;;;7.73;100.00
19023;BME280;35226;48.606;8.858;2022-12-24T05:39:39;96060.00;;;7.57;100.00
19023;BME280;35226;48.606;8.858;2022-12-24T05:42:05;96059.75;;;7.52;100.00
19023;BME280;35226;48.606;8.858;2022-12-24T05:44:30;96067.41;;;7.60;100.00
19023;BME280;35226;48.606;8.858;2022-12-24T05:46:56;96058.47;;;7.56;100.00
19023;BME280;35226;48.606;8.858;2022-12-24T05:49:21;96060.25;;;7.47;100.00
19023;BME280;35226;48.606;8.858;2022-12-24T05:51:47;96068.75;;;7.36;100.00
19023;BME280;35226;48.606;8.858;2022-12-24T05:54:12;96054.75;;;7.47;100.00
19023;BME280;35226;48.606;8.858;2022-12-24T05:56:38;96058.28;;;7.47;100.00
19023;BME280;35226;48.606;8.858;2022-12-24T05:59:03;96058.47;;;7.40;100.00
19023;BME280;35226;48.606;8.858;2022-12-24T06:01:29;96065.44;;;7.61;100.00
19023;BME280;35226;48.606;8.858;2022-12-24T06:03:55;96058.78;;;7.26;100.00
19023;BME280;35226;48.606;8.858;2022-12-24T06:06:23;96067.53;;;7.21;100.00
19023;BME280;35226;48.606;8.858;2022-12-24T06:08:50;96073.47;;;7.19;100.00
19023;BME280;35226;48.606;8.858;2022-12-24T06:11:18;96073.38;;;7.23;100.00
19023;BME280;35226;48.606;8.858;2022-12-24T06:13:44;96072.22;;;7.40;100.00
19023;BME280;35226;48.606;8.858;2022-12-24T06:16:12;96056.91;;;7.39;100.00
19023;BME280;35226;48.606;8.858;2022-12-24T06:18:38;96043.94;;;7.56;100.00
19023;BME280;35226;48.606;8.858;2022-12-24T06:21:04;96049.75;;;7.25;100.00
19023;BME280;35226;48.606;8.858;2022-12-24T06:23:33;96051.84;;;7.21;100.00
19023;BME280;35226;48.606;8.858;2022-12-24T06:26:00;96061.47;;;7.29;100.00
19023;BME280;35226;48.606;8.858;2022-12-24T06:28:27;96061.34;;;7.17;100.00
19023;BME280;35226;48.606;8.858;2022-12-24T06:30:53;96065.06;;;7.26;100.00
19023;BME280;35226;48.606;8.858;2022-12-24T06:33:19;96073.38;;;7.23;100.00
19023;BME280;35226;48.606;8.858;2022-12-24T06:35:45;96077.88;;;7.33;100.00
19023;BME280;35226;48.606;8.858;2022-12-24T06:38:11;96096.44;;;7.09;100.00
19023;BME280;35226;48.606;8.858;2022-12-24T06:40:38;96078.91;;;7.39;100.00
19023;BME280;35226;48.606;8.858;2022-12-24T06:43:03;96078.13;;;7.38;100.00
19023;BME280;35226;48.606;8.858;2022-12-24T06:45:29;96085.47;;;7.25;100.00
19023;BME280;35226;48.606;8.858;2022-12-24T06:47:56;96087.19;;;7.19;100.00
19023;BME280;35226;48.606;8.858;2022-12-24T06:50:22;96091.03;;;7.41;100.00
19023;BME280;35226;48.606;8.858;2022-12-24T06:52:47;96094.72;;;7.51;100.00
19023;BME280;35226;48.606;8.858;2022-12-24T06:55:13;96093.31;;;7.27;100.00
19023;BME280;35226;48.606;8.858;2022-12-24T06:57:39;96099.56;;;7.27;100.00
19023;BME280;35226;48.606;8.858;2022-12-24T07:00:07;96111.94;;;6.99;100.00
19023;BME280;35226;48.606;8.858;2022-12-24T07:02:33;96115.06;;;7.01;100.00
19023;BME280;35226;48.606;8.858;2022-12-24T07:04:58;96114.06;;;7.12;100.00
19023;BME280;35226;48.606;8.858;2022-12-24T07:07:24;96118.56;;;7.02;100.00
19023;BME280;35226;48.606;8.858;2022-12-24T07:09:49;96121.72;;;7.20;100.00
19023;BME280;35226;48.606;8.858;2022-12-24T07:12:15;96127.84;;;7.08;100.00
19023;BME280;35226;48.606;8.858;2022-12-24T07:14:40;96125.50;;;7.26;100.00
19023;BME280;35226;48.606;8.858;2022-12-24T07:17:06;96136.72;;;6.96;100.00
19023;BME280;35226;48.606;8.858;2022-12-24T07:19:31;96151.34;;;7.29;100.00
19023;BME280;35226;48.606;8.858;2022-12-24T07:21:58;96149.69;;;7.15;100.00
19023;BME280;35226;48.606;8.858;2022-12-24T07:24:24;96149.00;;;7.11;100.00
19023;BME280;35226;48.606;8.858;2022-12-24T07:26:50;96148.25;;;7.27;100.00
19023;BME280;35226;48.606;8.858;2022-12-24T07:29:15;96167.63;;;7.39;100.00
19023;BME280;35226;48.606;8.858;2022-12-24T07:31:41;96156.91;;;7.25;100.00
19023;BME280;35226;48.606;8.858;2022-12-24T07:34:06;96152.91;;;7.30;100.00
19023;BME280;35226;48.606;8.858;2022-12-24T07:36:32;96157.69;;;7.26;100.00
19023;BME280;35226;48.606;8.858;2022-12-24T07:38:57;96152.22;;;7.06;100.00
19023;BME280;35226;48.606;8.858;2022-12-24T07:41:23;96170.41;;;7.20;100.00
19023;BME280;35226;48.606;8.858;2022-12-24T07:43:48;96167.38;;;7.34;100.00
19023;BME280;35226;48.606;8.858;2022-12-24T07:46:14;96171.31;;;7.33;100.00
19023;BME280;35226;48.606;8.858;2022-12-24T07:48:39;96171.16;;;7.40;100.00
19023;BME280;35226;48.606;8.858;2022-12-24T07:51:05;96170.09;;;7.34;100.00
19023;BME280;35226;48.606;8.858;2022-12-24T07:53:31;96172.75;;;7.37;100.00
19023;BME280;35226;48.606;8.858;2022-12-24T07:55:57;96175.94;;;7.36;100.00
19023;BME280;35226;48.606;8.858;2022-12-24T07:58:23;96175.25;;;7.32;100.00
19023;BME280;35226;48.606;8.858;2022-12-24T08:00:54;96174.91;;;7.30;100.00
19023;BME280;35226;48.606;8.858;2022-12-24T08:03:20;96176.88;;;7.29;100.00
19023;BME280;35226;48.606;8.858;2022-12-24T08:05:47;96186.25;;;7.32;100.00
19023;BME280;35226;48.606;8.858;2022-12-24T08:08:13;96173.16;;;7.56;100.00
19023;BME280;35226;48.606;8.858;2022-12-24T08:10:43;96177.69;;;7.46;100.00
19023;BME280;35226;48.606;8.858;2022-12-24T08:13:09;96184.06;;;7.59;100.00
19023;BME280;35226;48.606;8.858;2022-12-24T08:15:34;96195.69;;;7.67;100.00
19023;BME280;35226;48.606;8.858;2022-12-24T08:18:00;96199.50;;;7.73;100.00
19023;BME280;35226;48.606;8.858;2022-12-24T08:20:25;96196.16;;;7.82;100.00
19023;BME280;35226;48.606;8.858;2022-12-24T08:22:52;96202.19;;;7.93;100.00
19023;BME280;35226;48.606;8.858;2022-12-24T08:25:17;96200.34;;;7.86;100.00
19023;BME280;35226;48.606;8.858;2022-12-24T08:27:43;96201.41;;;8.08;100.00
19023;BME280;35226;48.606;8.858;2022-12-24T08:30:09;96205.03;;;8.22;100.00
19023;BME280;35226;48.606;8.858;2022-12-24T08:32:35;96207.78;;;8.22;100.00
19023;BME280;35226;48.606;8.858;2022-12-24T08:35:00;96197.09;;;8.24;100.00
19023;BME280;35226;48.606;8.858;2022-12-24T08:37:26;96201.28;;;8.32;100.00
19023;BME280;35226;48.606;8.858;2022-12-24T08:39:51;96208.81;;;8.28;100.00
19023;BME280;35226;48.606;8.858;2022-12-24T08:42:17;96213.28;;;8.22;100.00
19023;BME280;35226;48.606;8.858;2022-12-24T08:44:43;96215.34;;;8.17;100.00
19023;BME280;35226;48.606;8.858;2022-12-24T08:47:08;96219.72;;;8.15;100.00
19023;BME280;35226;48.606;8.858;2022-12-24T08:49:37;96216.06;;;8.38;100.00
19023;BME280;35226;48.606;8.858;2022-12-24T08:52:04;96222.66;;;8.24;100.00
19023;BME280;35226;48.606;8.858;2022-12-24T08:54:29;96229.75;;;8.41;100.00
19023;BME280;35226;48.606;8.858;2022-12-24T08:56:55;96229.63;;;8.29;100.00
19023;BME280;35226;48.606;8.858;2022-12-24T08:59:20;96229.69;;;8.25;100.00
19023;BME280;35226;48.606;8.858;2022-12-24T09:01:46;96224.56;;;8.43;100.00
19023;BME280;35226;48.606;8.858;2022-12-24T09:04:11;96228.19;;;8.40;100.00
19023;BME280;35226;48.606;8.858;2022-12-24T09:06:37;96229.47;;;8.52;100.00
19023;BME280;35226;48.606;8.858;2022-12-24T09:09:03;96243.50;;;8.58;100.00
19023;BME280;35226;48.606;8.858;2022-12-24T09:11:29;96239.28;;;8.69;100.00
19023;BME280;35226;48.606;8.858;2022-12-24T09:13:55;96241.44;;;8.62;100.00
19023;BME280;35226;48.606;8.858;2022-12-24T09:16:20;96243.66;;;8.67;100.00
19023;BME280;35226;48.606;8.858;2022-12-24T09:18:46;96251.81;;;8.86;100.00
19023;BME280;35226;48.606;8.858;2022-12-24T09:21:14;96245.53;;;8.86;100.00
19023;BME280;35226;48.606;8.858;2022-12-24T09:23:46;96250.53;;;8.91;100.00
19023;BME280;35226;48.606;8.858;2022-12-24T09:26:22;96254.94;;;9.01;100.00
19023;BME280;35226;48.606;8.858;2022-12-24T09:28:49;96245.47;;;9.02;100.00
19023;BME280;35226;48.606;8.858;2022-12-24T09:31:15;96248.28;;;9.15;100.00
19023;BME280;35226;48.606;8.858;2022-12-24T09:33:44;96269.50;;;9.02;100.00
19023;BME280;35226;48.606;8.858;2022-12-24T09:36:10;96263.84;;;8.93;100.00
19023;BME280;35226;48.606;8.858;2022-12-24T09:38:37;96261.31;;;9.14;100.00
19023;BME280;35226;48.606;8.858;2022-12-24T09:41:21;96261.22;;;9.02;100.00
19023;BME280;35226;48.606;8.858;2022-12-24T09:43:58;96261.44;;;8.95;100.00
19023;BME280;35226;48.606;8.858;2022-12-24T09:46:35;96256.75;;;9.08;100.00
19023;BME280;35226;48.606;8.858;2022-12-24T09:49:05;96260.72;;;9.07;100.00
19023;BME280;35226;48.606;8.858;2022-12-24T09:51:40;96262.91;;;8.99;100.00
19023;BME280;35226;48.606;8.858;2022-12-24T09:54:27;96257.53;;;9.08;100.00
19023;BME280;35226;48.606;8.858;2022-12-24T09:56:56;96271.59;;;9.26;100.00
19023;BME280;35226;48.606;8.858;2022-12-24T09:59:34;96259.72;;;9.30;100.00
19023;BME280;35226;48.606;8.858;2022-12-24T10:02:13;96273.31;;;9.78;100.00
19023;BME280;35226;48.606;8.858;2022-12-24T10:04:41;96259.84;;;9.93;100.00
19023;BME280;35226;48.606;8.858;2022-12-24T10:10:03;96257.66;;;10.13;100.00
19023;BME280;35226;48.606;8.858;2022-12-24T10:15:31;96258.44;;;10.14;100.00
19023;BME280;35226;48.606;8.858;2022-12-24T10:18:08;96253.47;;;10.21;100.00
19023;BME280;35226;48.606;8.858;2022-12-24T10:23:32;96263.09;;;10.29;100.00
19023;BME280;35226;48.606;8.858;2022-12-24T10:28:46;96282.81;;;10.02;100.00
19023;BME280;35226;48.606;8.858;2022-12-24T10:31:14;96282.91;;;9.99;100.00
19023;BME280;35226;48.606;8.858;2022-12-24T10:33:42;96277.19;;;9.93;100.00
19023;BME280;35226;48.606;8.858;2022-12-24T10:36:17;96282.44;;;9.75;100.00
19023;BME280;35226;48.606;8.858;2022-12-24T10:38:45;96268.25;;;10.02;100.00
19023;BME280;35226;48.606;8.858;2022-12-24T10:41:11;96267.81;;;10.03;100.00
19023;BME280;35226;48.606;8.858;2022-12-24T10:43:38;96264.72;;;10.01;100.00
19023;BME280;35226;48.606;8.858;2022-12-24T10:48:43;96262.19;;;10.07;100.00
19023;BME280;35226;48.606;8.858;2022-12-24T10:51:25;96263.53;;;10.41;100.00
19023;BME280;35226;48.606;8.858;2022-12-24T10:54:14;96272.81;;;10.47;100.00
19023;BME280;35226;48.606;8.858;2022-12-24T10:56:47;96269.38;;;10.30;100.00
19023;BME280;35226;48.606;8.858;2022-12-24T10:59:51;96261.34;;;10.23;100.00
19023;BME280;35226;48.606;8.858;2022-12-24T11:02:26;96263.94;;;10.14;100.00
19023;BME280;35226;48.606;8.858;2022-12-24T11:04:52;96271.94;;;10.37;100.00
19023;BME280;35226;48.606;8.858;2022-12-24T11:07:20;96270.59;;;10.29;100.00
19023;BME280;35226;48.606;8.858;2022-12-24T11:12:22;96266.97;;;10.45;100.00
19023;BME280;35226;48.606;8.858;2022-12-24T11:18:02;96277.31;;;10.66;100.00
19023;BME280;35226;48.606;8.858;2022-12-24T11:20:31;96282.84;;;10.66;100.00
19023;BME280;35226;48.606;8.858;2022-12-24T11:22:57;96277.78;;;10.52;100.00
19023;BME280;35226;48.606;8.858;2022-12-24T11:25:27;96275.44;;;10.75;100.00
19023;BME280;35226;48.606;8.858;2022-12-24T11:27:54;96278.56;;;10.99;100.00
19023;BME280;35226;48.606;8.858;2022-12-24T11:30:26;96273.94;;;10.96;100.00
19023;BME280;35226;48.606;8.858;2022-12-24T11:35:29;96283.41;;;11.08;100.00
19023;BME280;35226;48.606;8.858;2022-12-24T11:40:37;96275.41;;;11.23;100.00
19023;BME280;35226;48.606;8.858;2022-12-24T11:43:05;96274.44;;;11.38;100.00
19023;BME280;35226;48.606;8.858;2022-12-24T11:45:32;96273.81;;;11.56;100.00
19023;BME280;35226;48.606;8.858;2022-12-24T11:47:59;96269.09;;;11.66;100.00
19023;BME280;35226;48.606;8.858;2022-12-24T11:50:33;96276.47;;;11.81;100.00
19023;BME280;35226;48.606;8.858;2022-12-24T12:00:31;96256.34;;;11.81;100.00
19023;BME280;35226;48.606;8.858;2022-12-24T12:02:59;96254.94;;;12.07;100.00
19023;BME280;35226;48.606;8.858;2022-12-24T12:05:31;96248.72;;;12.34;100.00
19023;BME280;35226;48.606;8.858;2022-12-24T12:08:08;96249.84;;;12.06;100.00
19023;BME280;35226;48.606;8.858;2022-12-24T12:10:39;96251.09;;;12.54;100.00
19023;BME280;35226;48.606;8.858;2022-12-24T12:13:11;96256.47;;;12.48;100.00
19023;BME280;35226;48.606;8.858;2022-12-24T12:15:50;96246.91;;;12.98;100.00
19023;BME280;35226;48.606;8.858;2022-12-24T12:18:31;96244.88;;;12.90;100.00
19023;BME280;35226;48.606;8.858;2022-12-24T12:21:03;96245.06;;;13.14;100.00
19023;BME280;35226;48.606;8.858;2022-12-24T12:23:34;96242.16;;;13.17;100.00
19023;BME280;35226;48.606;8.858;2022-12-24T12:26:12;96249.38;;;13.06;100.00
19023;BME280;35226;48.606;8.858;2022-12-24T12:31:34;96249.69;;;13.08;100.00
19023;BME280;35226;48.606;8.858;2022-12-24T12:34:11;96250.34;;;13.48;100.00
19023;BME280;35226;48.606;8.858;2022-12-24T12:36:53;96257.25;;;13.80;100.00
19023;BME280;35226;48.606;8.858;2022-12-24T12:39:22;96264.56;;;14.01;100.00
19023;BME280;35226;48.606;8.858;2022-12-24T12:52:57;96266.66;;;13.37;100.00
19023;BME280;35226;48.606;8.858;2022-12-24T13:01:59;96266.78;;;13.06;100.00
19023;BME280;35226;48.606;8.858;2022-12-24T13:07:10;96264.47;;;13.05;100.00
19023;BME280;35226;48.606;8.858;2022-12-24T13:10:05;96259.38;;;13.03;100.00
19023;BME280;35226;48.606;8.858;2022-12-24T13:20:24;96264.41;;;12.68;100.00
19023;BME280;35226;48.606;8.858;2022-12-24T13:23:09;96259.47;;;12.63;100.00
19023;BME280;35226;48.606;8.858;2022-12-24T13:25:39;96261.50;;;12.72;100.00
19023;BME280;35226;48.606;8.858;2022-12-24T13:30:52;96268.19;;;12.43;100.00
19023;BME280;35226;48.606;8.858;2022-12-24T13:36:08;96257.34;;;12.36;100.00
19023;BME280;35226;48.606;8.858;2022-12-24T13:49:42;96258.56;;;12.26;100.00
19023;BME280;35226;48.606;8.858;2022-12-24T14:05:37;96253.22;;;12.01;100.00
19023;BME280;35226;48.606;8.858;2022-12-24T14:08:11;96247.84;;;12.06;100.00
19023;BME280;35226;48.606;8.858;2022-12-24T14:10:41;96245.28;;;12.12;100.00
19023;BME280;35226;48.606;8.858;2022-12-24T14:16:08;96228.91;;;12.05;100.00
19023;BME280;35226;48.606;8.858;2022-12-24T14:18:41;96235.78;;;11.91;100.00
19023;BME280;35226;48.606;8.858;2022-12-24T14:21:21;96243.84;;;11.76;100.00
19023;BME280;35226;48.606;8.858;2022-12-24T14:24:04;96240.63;;;11.78;100.00
19023;BME280;35226;48.606;8.858;2022-12-24T14:26:33;96247.28;;;11.68;100.00
19023;BME280;35226;48.606;8.858;2022-12-24T14:29:36;96252.72;;;11.71;100.00
19023;BME280;35226;48.606;8.858;2022-12-24T14:32:01;96258.69;;;11.70;100.00
19023;BME280;35226;48.606;8.858;2022-12-24T14:34:29;96247.94;;;11.72;100.00
19023;BME280;35226;48.606;8.858;2022-12-24T14:36:57;96239.44;;;11.66;100.00
19023;BME280;35226;48.606;8.858;2022-12-24T14:39:31;96240.16;;;11.58;100.00
19023;BME280;35226;48.606;8.858;2022-12-24T14:44:46;96236.69;;;11.66;100.00
19023;BME280;35226;48.606;8.858;2022-12-24T14:55:48;96240.69;;;11.43;100.00
19023;BME280;35226;48.606;8.858;2022-12-24T15:00:51;96243.44;;;11.22;100.00
19023;BME280;35226;48.606;8.858;2022-12-24T15:03:18;96266.00;;;11.20;100.00
19023;BME280;35226;48.606;8.858;2022-12-24T15:05:50;96264.75;;;11.34;100.00
19023;BME280;35226;48.606;8.858;2022-12-24T15:08:21;96265.00;;;11.48;100.00
19023;BME280;35226;48.606;8.858;2022-12-24T15:10:52;96270.97;;;11.47;100.00
19023;BME280;35226;48.606;8.858;2022-12-24T15:15:57;96276.69;;;11.31;100.00
19023;BME280;35226;48.606;8.858;2022-12-24T15:18:25;96277.09;;;11.42;100.00
19023;BME280;35226;48.606;8.858;2022-12-24T15:20:54;96273.28;;;10.92;100.00
19023;BME280;35226;48.606;8.858;2022-12-24T15:23:27;96279.38;;;10.87;100.00
19023;BME280;35226;48.606;8.858;2022-12-24T15:26:28;96282.09;;;10.65;100.00
19023;BME280;35226;48.606;8.858;2022-12-24T15:28:57;96283.72;;;10.63;100.00
19023;BME280;35226;48.606;8.858;2022-12-24T15:31:24;96295.09;;;10.77;100.00